sensor_id;sensor_type;location;lat;lon;timestamp;P1;durP1;ratioP1;P2;durP2;ratioP2
59607;SDS011;45426;44.726;10.390;2022-12-11T00:00:38;37.97;;;18.02;;
59607;SDS011;45426;44.726;10.390;2022-12-11T00:03:07;40.40;;;17.75;;
59607;SDS011;45426;44.726;10.390;2022-12-11T00:05:32;41.25;;;18.95;;
59607;SDS011;45426;44.726;10.390;2022-12-11T00:07:58;39.90;;;18.73;;
59607;SDS011;45426;44.726;10.390;2022-12-11T00:10:23;41.03;;;19.42;;
59607;SDS011;45426;44.726;10.390;2022-12-11T00:12:49;39.78;;;19.55;;
59607;SDS011;45426;44.726;10.390;2022-12-11T00:15:14;41.50;;;18.95;;
59607;SDS011;45426;44.726;10.390;2022-12-11T00:17:40;39.60;;;18.15;;
59607;SDS011;45426;44.726;10.390;2022-12-11T00:20:05;38.10;;;17.63;;
59607;SDS011;45426;44.726;10.390;2022-12-11T00:22:32;35.63;;;16.60;;
59607;SDS011;45426;44.726;10.390;2022-12-11T00:24:58;36.72;;;17.17;;
59607;SDS011;45426;44.726;10.390;2022-12-11T00:27:23;37.63;;;17.02;;
59607;SDS011;45426;44.726;10.390;2022-12-11T00:29:49;36.45;;;17.15;;
59607;SDS011;45426;44.726;10.390;2022-12-11T00:32:14;37.08;;;17.30;;
59607;SDS011;45426;44.726;10.390;2022-12-11T00:34:39;38.30;;;17.13;;
59607;SDS011;45426;44.726;10.390;2022-12-11T00:37:05;42.40;;;17.33;;
59607;SDS011;45426;44.726;10.390;2022-12-11T00:39:30;38.22;;;17.70;;
59607;SDS011;45426;44.726;10.390;2022-12-11T00:41:56;38.45;;;17.33;;
59607;SDS011;45426;44.726;10.390;2022-12-11T00:44:22;39.30;;;18.00;;
59607;SDS011;45426;44.726;10.390;2022-12-11T00:46:47;36.38;;;17.30;;
59607;SDS011;45426;44.726;10.390;2022-12-11T00:49:13;39.88;;;19.23;;
59607;SDS011;45426;44.726;10.390;2022-12-11T00:51:38;42.83;;;19.30;;
59607;SDS011;45426;44.726;10.390;2022-12-11T00:54:04;45.22;;;20.05;;
59607;SDS011;45426;44.726;10.390;2022-12-11T00:56:30;40.30;;;19.08;;
59607;SDS011;45426;44.726;10.390;2022-12-11T00:58:55;41.22;;;18.65;;
59607;SDS011;45426;44.726;10.390;2022-12-11T01:01:21;40.00;;;17.98;;
59607;SDS011;45426;44.726;10.390;2022-12-11T01:03:49;41.60;;;17.67;;
59607;SDS011;45426;44.726;10.390;2022-12-11T01:06:16;40.72;;;17.90;;
59607;SDS011;45426;44.726;10.390;2022-12-11T01:08:43;39.53;;;17.15;;
59607;SDS011;45426;44.726;10.390;2022-12-11T01:11:09;36.13;;;17.35;;
59607;SDS011;45426;44.726;10.390;2022-12-11T01:13:36;33.55;;;15.57;;
59607;SDS011;45426;44.726;10.390;2022-12-11T01:16:09;40.17;;;17.65;;
59607;SDS011;45426;44.726;10.390;2022-12-11T01:18:38;36.75;;;16.70;;
59607;SDS011;45426;44.726;10.390;2022-12-11T01:21:05;41.95;;;18.63;;
59607;SDS011;45426;44.726;10.390;2022-12-11T01:23:32;38.90;;;18.10;;
59607;SDS011;45426;44.726;10.390;2022-12-11T01:26:03;43.55;;;19.05;;
59607;SDS011;45426;44.726;10.390;2022-12-11T01:28:39;44.45;;;19.10;;
59607;SDS011;45426;44.726;10.390;2022-12-11T01:31:08;48.45;;;21.10;;
59607;SDS011;45426;44.726;10.390;2022-12-11T01:33:36;45.83;;;20.35;;
59607;SDS011;45426;44.726;10.390;2022-12-11T01:36:05;46.08;;;20.52;;
59607;SDS011;45426;44.726;10.390;2022-12-11T01:38:35;49.03;;;20.55;;
59607;SDS011;45426;44.726;10.390;2022-12-11T01:41:01;49.55;;;21.45;;
59607;SDS011;45426;44.726;10.390;2022-12-11T01:43:26;47.05;;;21.17;;
59607;SDS011;45426;44.726;10.390;2022-12-11T01:45:52;48.25;;;19.88;;
59607;SDS011;45426;44.726;10.390;2022-12-11T01:48:30;47.90;;;20.30;;
59607;SDS011;45426;44.726;10.390;2022-12-11T01:53:25;46.10;;;19.42;;
59607;SDS011;45426;44.726;10.390;2022-12-11T01:55:54;44.50;;;19.23;;
59607;SDS011;45426;44.726;10.390;2022-12-11T01:58:28;47.25;;;20.20;;
59607;SDS011;45426;44.726;10.390;2022-12-11T02:00:57;45.38;;;19.90;;
59607;SDS011;45426;44.726;10.390;2022-12-11T02:03:25;49.05;;;19.70;;
59607;SDS011;45426;44.726;10.390;2022-12-11T02:05:51;45.95;;;19.50;;
59607;SDS011;45426;44.726;10.390;2022-12-11T02:08:16;47.10;;;20.02;;
59607;SDS011;45426;44.726;10.390;2022-12-11T02:11:28;45.17;;;20.05;;
59607;SDS011;45426;44.726;10.390;2022-12-11T02:16:21;45.95;;;18.85;;
59607;SDS011;45426;44.726;10.390;2022-12-11T02:19:17;45.38;;;19.48;;
59607;SDS011;45426;44.726;10.390;2022-12-11T02:21:40;44.67;;;19.58;;
59607;SDS011;45426;44.726;10.390;2022-12-11T02:26:49;43.60;;;19.42;;
59607;SDS011;45426;44.726;10.390;2022-12-11T02:29:35;41.22;;;17.35;;
59607;SDS011;45426;44.726;10.390;2022-12-11T02:32:05;36.80;;;16.63;;
59607;SDS011;45426;44.726;10.390;2022-12-11T02:35:01;37.35;;;16.42;;
59607;SDS011;45426;44.726;10.390;2022-12-11T02:37:32;44.20;;;17.73;;
59607;SDS011;45426;44.726;10.390;2022-12-11T02:40:02;39.35;;;16.70;;
59607;SDS011;45426;44.726;10.390;2022-12-11T02:42:31;38.83;;;16.77;;
59607;SDS011;45426;44.726;10.390;2022-12-11T02:44:58;39.47;;;17.05;;
59607;SDS011;45426;44.726;10.390;2022-12-11T02:47:26;43.00;;;17.67;;
59607;SDS011;45426;44.726;10.390;2022-12-11T02:49:54;41.60;;;17.30;;
59607;SDS011;45426;44.726;10.390;2022-12-11T02:52:23;47.45;;;19.15;;
59607;SDS011;45426;44.726;10.390;2022-12-11T02:54:51;50.85;;;18.58;;
59607;SDS011;45426;44.726;10.390;2022-12-11T03:00:09;52.35;;;18.08;;
59607;SDS011;45426;44.726;10.390;2022-12-11T03:02:35;44.10;;;16.23;;
59607;SDS011;45426;44.726;10.390;2022-12-11T03:05:02;53.50;;;16.02;;
59607;SDS011;45426;44.726;10.390;2022-12-11T03:07:28;68.35;;;17.42;;
59607;SDS011;45426;44.726;10.390;2022-12-11T03:09:57;81.13;;;17.80;;
59607;SDS011;45426;44.726;10.390;2022-12-11T03:12:28;72.60;;;17.33;;
59607;SDS011;45426;44.726;10.390;2022-12-11T03:14:56;41.38;;;15.20;;
59607;SDS011;45426;44.726;10.390;2022-12-11T03:17:27;54.83;;;16.70;;
59607;SDS011;45426;44.726;10.390;2022-12-11T03:20:06;47.22;;;16.23;;
59607;SDS011;45426;44.726;10.390;2022-12-11T03:22:47;40.17;;;15.77;;
59607;SDS011;45426;44.726;10.390;2022-12-11T03:25:28;40.30;;;16.73;;
59607;SDS011;45426;44.726;10.390;2022-12-11T03:30:28;59.50;;;16.83;;
59607;SDS011;45426;44.726;10.390;2022-12-11T03:33:02;57.20;;;16.95;;
59607;SDS011;45426;44.726;10.390;2022-12-11T03:35:43;61.63;;;17.27;;
59607;SDS011;45426;44.726;10.390;2022-12-11T03:38:47;68.93;;;16.35;;
59607;SDS011;45426;44.726;10.390;2022-12-11T03:41:08;46.40;;;16.45;;
59607;SDS011;45426;44.726;10.390;2022-12-11T03:43:36;55.83;;;18.00;;
59607;SDS011;45426;44.726;10.390;2022-12-11T03:46:03;53.20;;;18.77;;
59607;SDS011;45426;44.726;10.390;2022-12-11T03:48:30;56.40;;;18.60;;
59607;SDS011;45426;44.726;10.390;2022-12-11T03:51:00;56.10;;;16.88;;
59607;SDS011;45426;44.726;10.390;2022-12-11T03:53:29;56.70;;;17.95;;
59607;SDS011;45426;44.726;10.390;2022-12-11T03:55:55;57.92;;;17.50;;
59607;SDS011;45426;44.726;10.390;2022-12-11T03:58:22;49.50;;;17.48;;
59607;SDS011;45426;44.726;10.390;2022-12-11T04:00:47;51.95;;;16.88;;
59607;SDS011;45426;44.726;10.390;2022-12-11T04:03:13;52.78;;;18.13;;
59607;SDS011;45426;44.726;10.390;2022-12-11T04:05:43;48.72;;;16.77;;
59607;SDS011;45426;44.726;10.390;2022-12-11T04:08:10;51.42;;;17.17;;
59607;SDS011;45426;44.726;10.390;2022-12-11T04:10:36;52.38;;;17.27;;
59607;SDS011;45426;44.726;10.390;2022-12-11T04:13:01;50.60;;;17.85;;
59607;SDS011;45426;44.726;10.390;2022-12-11T04:15:26;49.22;;;16.77;;
59607;SDS011;45426;44.726;10.390;2022-12-11T04:17:52;49.72;;;18.38;;
59607;SDS011;45426;44.726;10.390;2022-12-11T04:20:36;54.58;;;17.63;;
59607;SDS011;45426;44.726;10.390;2022-12-11T04:23:19;48.33;;;18.15;;
59607;SDS011;45426;44.726;10.390;2022-12-11T04:26:07;47.58;;;17.95;;
59607;SDS011;45426;44.726;10.390;2022-12-11T04:28:38;56.13;;;19.02;;
59607;SDS011;45426;44.726;10.390;2022-12-11T04:31:04;51.90;;;17.15;;
59607;SDS011;45426;44.726;10.390;2022-12-11T04:33:29;58.80;;;19.23;;
59607;SDS011;45426;44.726;10.390;2022-12-11T04:35:59;61.13;;;18.15;;
59607;SDS011;45426;44.726;10.390;2022-12-11T04:38:24;53.10;;;18.40;;
59607;SDS011;45426;44.726;10.390;2022-12-11T04:41:04;55.63;;;18.90;;
59607;SDS011;45426;44.726;10.390;2022-12-11T04:43:37;49.45;;;17.48;;
59607;SDS011;45426;44.726;10.390;2022-12-11T04:46:06;50.70;;;18.50;;
59607;SDS011;45426;44.726;10.390;2022-12-11T04:48:34;51.83;;;18.58;;
59607;SDS011;45426;44.726;10.390;2022-12-11T04:50:59;51.53;;;19.27;;
59607;SDS011;45426;44.726;10.390;2022-12-11T04:53:25;51.40;;;17.02;;
59607;SDS011;45426;44.726;10.390;2022-12-11T04:55:52;54.58;;;18.63;;
59607;SDS011;45426;44.726;10.390;2022-12-11T04:58:17;49.67;;;18.38;;
59607;SDS011;45426;44.726;10.390;2022-12-11T05:00:43;47.55;;;17.95;;
59607;SDS011;45426;44.726;10.390;2022-12-11T05:03:08;46.40;;;18.52;;
59607;SDS011;45426;44.726;10.390;2022-12-11T05:05:34;53.55;;;18.00;;
59607;SDS011;45426;44.726;10.390;2022-12-11T05:07:59;49.08;;;16.40;;
59607;SDS011;45426;44.726;10.390;2022-12-11T05:10:25;48.08;;;17.40;;
59607;SDS011;45426;44.726;10.390;2022-12-11T05:12:50;52.55;;;18.35;;
59607;SDS011;45426;44.726;10.390;2022-12-11T05:15:15;46.40;;;17.27;;
59607;SDS011;45426;44.726;10.390;2022-12-11T05:17:41;46.15;;;17.10;;
59607;SDS011;45426;44.726;10.390;2022-12-11T05:20:07;46.38;;;16.88;;
59607;SDS011;45426;44.726;10.390;2022-12-11T05:22:33;44.92;;;17.02;;
59607;SDS011;45426;44.726;10.390;2022-12-11T05:24:58;43.47;;;17.63;;
59607;SDS011;45426;44.726;10.390;2022-12-11T05:27:24;42.30;;;16.83;;
59607;SDS011;45426;44.726;10.390;2022-12-11T05:29:49;38.63;;;16.27;;
59607;SDS011;45426;44.726;10.390;2022-12-11T05:32:15;45.38;;;16.08;;
59607;SDS011;45426;44.726;10.390;2022-12-11T05:34:40;43.40;;;16.52;;
59607;SDS011;45426;44.726;10.390;2022-12-11T05:37:05;42.85;;;17.40;;
59607;SDS011;45426;44.726;10.390;2022-12-11T05:39:31;37.20;;;16.00;;
59607;SDS011;45426;44.726;10.390;2022-12-11T05:41:57;37.40;;;15.95;;
59607;SDS011;45426;44.726;10.390;2022-12-11T05:44:22;34.13;;;14.70;;
59607;SDS011;45426;44.726;10.390;2022-12-11T05:46:47;36.40;;;14.98;;
59607;SDS011;45426;44.726;10.390;2022-12-11T05:49:13;37.15;;;16.75;;
59607;SDS011;45426;44.726;10.390;2022-12-11T05:51:39;32.67;;;14.40;;
59607;SDS011;45426;44.726;10.390;2022-12-11T05:54:05;35.08;;;14.75;;
59607;SDS011;45426;44.726;10.390;2022-12-11T05:56:31;29.45;;;12.68;;
59607;SDS011;45426;44.726;10.390;2022-12-11T05:58:58;32.17;;;12.32;;
59607;SDS011;45426;44.726;10.390;2022-12-11T06:01:25;28.20;;;13.13;;
59607;SDS011;45426;44.726;10.390;2022-12-11T06:03:53;34.33;;;13.57;;
59607;SDS011;45426;44.726;10.390;2022-12-11T06:06:19;31.23;;;13.20;;
59607;SDS011;45426;44.726;10.390;2022-12-11T06:08:48;29.85;;;11.70;;
59607;SDS011;45426;44.726;10.390;2022-12-11T06:11:14;29.02;;;11.82;;
59607;SDS011;45426;44.726;10.390;2022-12-11T06:13:40;23.55;;;11.38;;
59607;SDS011;45426;44.726;10.390;2022-12-11T06:16:05;22.83;;;10.60;;
59607;SDS011;45426;44.726;10.390;2022-12-11T06:18:38;23.00;;;11.75;;
59607;SDS011;45426;44.726;10.390;2022-12-11T06:21:16;23.90;;;11.13;;
59607;SDS011;45426;44.726;10.390;2022-12-11T06:23:44;25.17;;;10.70;;
59607;SDS011;45426;44.726;10.390;2022-12-11T06:26:11;27.63;;;12.90;;
59607;SDS011;45426;44.726;10.390;2022-12-11T06:28:37;27.42;;;12.73;;
59607;SDS011;45426;44.726;10.390;2022-12-11T06:31:03;26.80;;;12.10;;
59607;SDS011;45426;44.726;10.390;2022-12-11T06:33:28;23.92;;;11.43;;
59607;SDS011;45426;44.726;10.390;2022-12-11T06:35:54;29.98;;;13.85;;
59607;SDS011;45426;44.726;10.390;2022-12-11T06:38:20;25.50;;;12.30;;
59607;SDS011;45426;44.726;10.390;2022-12-11T06:40:46;24.27;;;10.93;;
59607;SDS011;45426;44.726;10.390;2022-12-11T06:43:18;23.85;;;10.95;;
59607;SDS011;45426;44.726;10.390;2022-12-11T06:45:44;26.38;;;11.25;;
59607;SDS011;45426;44.726;10.390;2022-12-11T06:48:09;30.15;;;13.63;;
59607;SDS011;45426;44.726;10.390;2022-12-11T06:50:36;28.85;;;12.55;;
59607;SDS011;45426;44.726;10.390;2022-12-11T06:53:02;28.95;;;12.60;;
59607;SDS011;45426;44.726;10.390;2022-12-11T06:55:27;32.20;;;13.95;;
59607;SDS011;45426;44.726;10.390;2022-12-11T06:57:53;25.92;;;11.48;;
59607;SDS011;45426;44.726;10.390;2022-12-11T07:00:18;27.52;;;11.80;;
59607;SDS011;45426;44.726;10.390;2022-12-11T07:02:43;27.65;;;11.68;;
59607;SDS011;45426;44.726;10.390;2022-12-11T07:05:09;23.30;;;10.13;;
59607;SDS011;45426;44.726;10.390;2022-12-11T07:07:34;26.30;;;10.13;;
59607;SDS011;45426;44.726;10.390;2022-12-11T07:09:59;21.55;;;8.30;;
59607;SDS011;45426;44.726;10.390;2022-12-11T07:12:25;18.55;;;8.20;;
59607;SDS011;45426;44.726;10.390;2022-12-11T07:14:50;35.67;;;17.00;;
59607;SDS011;45426;44.726;10.390;2022-12-11T07:17:16;32.83;;;15.52;;
59607;SDS011;45426;44.726;10.390;2022-12-11T07:19:41;20.00;;;8.95;;
59607;SDS011;45426;44.726;10.390;2022-12-11T07:22:06;15.55;;;6.60;;
59607;SDS011;45426;44.726;10.390;2022-12-11T07:24:32;12.20;;;5.70;;
59607;SDS011;45426;44.726;10.390;2022-12-11T07:26:57;12.27;;;5.97;;
59607;SDS011;45426;44.726;10.390;2022-12-11T07:29:23;12.13;;;5.65;;
59607;SDS011;45426;44.726;10.390;2022-12-11T07:31:48;14.02;;;5.63;;
59607;SDS011;45426;44.726;10.390;2022-12-11T07:34:14;12.02;;;5.43;;
59607;SDS011;45426;44.726;10.390;2022-12-11T07:36:40;11.25;;;5.68;;
59607;SDS011;45426;44.726;10.390;2022-12-11T07:39:06;11.63;;;5.60;;
59607;SDS011;45426;44.726;10.390;2022-12-11T07:41:33;12.82;;;5.80;;
59607;SDS011;45426;44.726;10.390;2022-12-11T07:43:58;13.25;;;6.25;;
59607;SDS011;45426;44.726;10.390;2022-12-11T07:46:25;10.80;;;5.13;;
59607;SDS011;45426;44.726;10.390;2022-12-11T07:48:52;11.35;;;5.43;;
59607;SDS011;45426;44.726;10.390;2022-12-11T07:53:47;11.57;;;5.22;;
59607;SDS011;45426;44.726;10.390;2022-12-11T07:56:14;13.00;;;6.03;;
59607;SDS011;45426;44.726;10.390;2022-12-11T07:58:40;11.27;;;5.60;;
59607;SDS011;45426;44.726;10.390;2022-12-11T08:01:10;12.90;;;6.22;;
59607;SDS011;45426;44.726;10.390;2022-12-11T08:03:37;11.45;;;5.75;;
59607;SDS011;45426;44.726;10.390;2022-12-11T08:06:03;12.20;;;6.25;;
59607;SDS011;45426;44.726;10.390;2022-12-11T08:08:29;12.25;;;6.43;;
59607;SDS011;45426;44.726;10.390;2022-12-11T08:10:55;10.98;;;5.95;;
59607;SDS011;45426;44.726;10.390;2022-12-11T08:13:20;11.50;;;5.80;;
59607;SDS011;45426;44.726;10.390;2022-12-11T08:15:46;11.18;;;4.93;;
59607;SDS011;45426;44.726;10.390;2022-12-11T08:18:11;12.30;;;5.40;;
59607;SDS011;45426;44.726;10.390;2022-12-11T08:20:37;11.82;;;5.40;;
59607;SDS011;45426;44.726;10.390;2022-12-11T08:23:03;11.27;;;5.63;;
59607;SDS011;45426;44.726;10.390;2022-12-11T08:25:29;10.02;;;5.00;;
59607;SDS011;45426;44.726;10.390;2022-12-11T08:27:54;10.73;;;5.00;;
59607;SDS011;45426;44.726;10.390;2022-12-11T08:30:20;11.18;;;5.10;;
59607;SDS011;45426;44.726;10.390;2022-12-11T08:32:45;11.95;;;5.45;;
59607;SDS011;45426;44.726;10.390;2022-12-11T08:35:10;10.50;;;5.13;;
59607;SDS011;45426;44.726;10.390;2022-12-11T08:37:36;10.60;;;5.45;;
59607;SDS011;45426;44.726;10.390;2022-12-11T08:40:01;14.65;;;5.53;;
59607;SDS011;45426;44.726;10.390;2022-12-11T08:42:27;14.55;;;5.95;;
59607;SDS011;45426;44.726;10.390;2022-12-11T08:44:53;12.93;;;5.32;;
59607;SDS011;45426;44.726;10.390;2022-12-11T08:47:18;15.77;;;6.20;;
59607;SDS011;45426;44.726;10.390;2022-12-11T08:49:44;13.75;;;6.32;;
59607;SDS011;45426;44.726;10.390;2022-12-11T08:52:09;14.45;;;6.75;;
59607;SDS011;45426;44.726;10.390;2022-12-11T08:54:37;16.13;;;6.90;;
59607;SDS011;45426;44.726;10.390;2022-12-11T08:57:03;15.20;;;6.70;;
59607;SDS011;45426;44.726;10.390;2022-12-11T08:59:29;15.73;;;7.22;;
59607;SDS011;45426;44.726;10.390;2022-12-11T09:01:54;17.58;;;7.07;;
59607;SDS011;45426;44.726;10.390;2022-12-11T09:04:20;15.75;;;7.18;;
59607;SDS011;45426;44.726;10.390;2022-12-11T09:06:46;18.05;;;7.32;;
59607;SDS011;45426;44.726;10.390;2022-12-11T09:09:11;16.08;;;7.07;;
59607;SDS011;45426;44.726;10.390;2022-12-11T09:11:37;17.13;;;7.18;;
59607;SDS011;45426;44.726;10.390;2022-12-11T09:14:03;14.15;;;6.50;;
59607;SDS011;45426;44.726;10.390;2022-12-11T09:16:29;12.93;;;6.30;;
59607;SDS011;45426;44.726;10.390;2022-12-11T09:18:56;13.40;;;6.63;;
59607;SDS011;45426;44.726;10.390;2022-12-11T09:21:23;14.43;;;6.68;;
59607;SDS011;45426;44.726;10.390;2022-12-11T09:23:54;14.40;;;6.65;;
59607;SDS011;45426;44.726;10.390;2022-12-11T09:26:21;13.32;;;6.63;;
59607;SDS011;45426;44.726;10.390;2022-12-11T09:28:47;14.32;;;6.30;;
59607;SDS011;45426;44.726;10.390;2022-12-11T09:31:19;15.38;;;7.13;;
59607;SDS011;45426;44.726;10.390;2022-12-11T09:33:47;15.25;;;7.05;;
59607;SDS011;45426;44.726;10.390;2022-12-11T09:36:13;15.82;;;6.50;;
59607;SDS011;45426;44.726;10.390;2022-12-11T09:38:39;15.38;;;7.00;;
59607;SDS011;45426;44.726;10.390;2022-12-11T09:46:14;14.77;;;7.30;;
59607;SDS011;45426;44.726;10.390;2022-12-11T09:48:41;18.15;;;7.50;;
59607;SDS011;45426;44.726;10.390;2022-12-11T09:51:16;13.55;;;7.10;;
59607;SDS011;45426;44.726;10.390;2022-12-11T09:53:52;15.05;;;7.10;;
59607;SDS011;45426;44.726;10.390;2022-12-11T09:56:22;15.20;;;7.13;;
59607;SDS011;45426;44.726;10.390;2022-12-11T10:01:44;14.75;;;7.47;;
59607;SDS011;45426;44.726;10.390;2022-12-11T10:07:13;16.88;;;7.55;;
59607;SDS011;45426;44.726;10.390;2022-12-11T10:17:46;16.52;;;7.68;;
59607;SDS011;45426;44.726;10.390;2022-12-11T10:22:52;16.55;;;8.25;;
59607;SDS011;45426;44.726;10.390;2022-12-11T10:25:22;16.83;;;8.27;;
59607;SDS011;45426;44.726;10.390;2022-12-11T10:27:52;16.52;;;8.20;;
59607;SDS011;45426;44.726;10.390;2022-12-11T10:30:18;17.50;;;7.93;;
59607;SDS011;45426;44.726;10.390;2022-12-11T10:35:46;13.95;;;7.30;;
59607;SDS011;45426;44.726;10.390;2022-12-11T10:40:48;14.60;;;7.32;;
59607;SDS011;45426;44.726;10.390;2022-12-11T10:43:15;14.95;;;7.70;;
59607;SDS011;45426;44.726;10.390;2022-12-11T10:45:48;15.52;;;7.20;;
59607;SDS011;45426;44.726;10.390;2022-12-11T10:48:15;15.13;;;7.67;;
59607;SDS011;45426;44.726;10.390;2022-12-11T10:50:41;15.10;;;7.22;;
59607;SDS011;45426;44.726;10.390;2022-12-11T10:53:19;15.82;;;7.75;;
59607;SDS011;45426;44.726;10.390;2022-12-11T10:55:45;13.85;;;7.32;;
59607;SDS011;45426;44.726;10.390;2022-12-11T10:58:16;13.38;;;7.00;;
59607;SDS011;45426;44.726;10.390;2022-12-11T11:00:44;12.95;;;6.88;;
59607;SDS011;45426;44.726;10.390;2022-12-11T11:03:23;12.40;;;6.35;;
59607;SDS011;45426;44.726;10.390;2022-12-11T11:06:13;13.45;;;6.90;;
59607;SDS011;45426;44.726;10.390;2022-12-11T11:08:42;13.40;;;6.15;;
59607;SDS011;45426;44.726;10.390;2022-12-11T11:11:22;13.82;;;6.55;;
59607;SDS011;45426;44.726;10.390;2022-12-11T11:13:47;12.98;;;6.43;;
59607;SDS011;45426;44.726;10.390;2022-12-11T11:16:14;16.30;;;7.95;;
59607;SDS011;45426;44.726;10.390;2022-12-11T11:18:47;17.15;;;8.38;;
59607;SDS011;45426;44.726;10.390;2022-12-11T11:23:44;15.98;;;7.90;;
59607;SDS011;45426;44.726;10.390;2022-12-11T11:26:10;13.55;;;6.80;;
59607;SDS011;45426;44.726;10.390;2022-12-11T11:28:38;14.38;;;6.90;;
59607;SDS011;45426;44.726;10.390;2022-12-11T11:33:44;14.32;;;7.53;;
59607;SDS011;45426;44.726;10.390;2022-12-11T11:36:20;13.15;;;6.75;;
59607;SDS011;45426;44.726;10.390;2022-12-11T11:41:42;14.43;;;7.38;;
59607;SDS011;45426;44.726;10.390;2022-12-11T11:44:14;13.80;;;7.13;;
59607;SDS011;45426;44.726;10.390;2022-12-11T11:46:57;14.25;;;7.85;;
59607;SDS011;45426;44.726;10.390;2022-12-11T11:49:45;14.55;;;7.60;;
59607;SDS011;45426;44.726;10.390;2022-12-11T11:57:42;17.23;;;7.85;;
59607;SDS011;45426;44.726;10.390;2022-12-11T12:00:26;15.60;;;8.18;;
59607;SDS011;45426;44.726;10.390;2022-12-11T12:03:14;15.48;;;7.78;;
59607;SDS011;45426;44.726;10.390;2022-12-11T12:19:26;18.05;;;10.25;;
59607;SDS011;45426;44.726;10.390;2022-12-11T12:21:57;18.73;;;9.52;;
59607;SDS011;45426;44.726;10.390;2022-12-11T12:24:45;21.42;;;12.65;;
59607;SDS011;45426;44.726;10.390;2022-12-11T12:27:33;24.90;;;13.32;;
59607;SDS011;45426;44.726;10.390;2022-12-11T12:30:22;18.13;;;9.35;;
59607;SDS011;45426;44.726;10.390;2022-12-11T12:38:04;26.77;;;13.65;;
59607;SDS011;45426;44.726;10.390;2022-12-11T12:48:55;12.68;;;6.40;;
59607;SDS011;45426;44.726;10.390;2022-12-11T12:51:22;13.23;;;6.88;;
59607;SDS011;45426;44.726;10.390;2022-12-11T12:53:53;10.60;;;5.07;;
59607;SDS011;45426;44.726;10.390;2022-12-11T12:56:21;9.63;;;4.85;;
59607;SDS011;45426;44.726;10.390;2022-12-11T12:58:48;12.63;;;5.00;;
59607;SDS011;45426;44.726;10.390;2022-12-11T13:04:01;11.98;;;4.95;;
59607;SDS011;45426;44.726;10.390;2022-12-11T13:09:12;12.02;;;5.63;;
59607;SDS011;45426;44.726;10.390;2022-12-11T13:11:43;11.13;;;4.82;;
59607;SDS011;45426;44.726;10.390;2022-12-11T13:16:42;12.02;;;6.13;;
59607;SDS011;45426;44.726;10.390;2022-12-11T13:26:45;14.52;;;6.13;;
59607;SDS011;45426;44.726;10.390;2022-12-11T13:31:58;12.05;;;5.85;;
59607;SDS011;45426;44.726;10.390;2022-12-11T13:34:31;13.05;;;5.95;;
59607;SDS011;45426;44.726;10.390;2022-12-11T13:36:59;15.98;;;8.27;;
59607;SDS011;45426;44.726;10.390;2022-12-11T13:39:28;10.73;;;5.40;;
59607;SDS011;45426;44.726;10.390;2022-12-11T13:41:56;12.20;;;6.13;;
59607;SDS011;45426;44.726;10.390;2022-12-11T13:44:28;13.07;;;5.18;;
59607;SDS011;45426;44.726;10.390;2022-12-11T13:46:57;14.82;;;5.90;;
59607;SDS011;45426;44.726;10.390;2022-12-11T13:49:45;13.05;;;5.90;;
59607;SDS011;45426;44.726;10.390;2022-12-11T13:52:18;11.85;;;6.10;;
59607;SDS011;45426;44.726;10.390;2022-12-11T13:54:55;13.25;;;6.57;;
59607;SDS011;45426;44.726;10.390;2022-12-11T13:57:26;11.77;;;6.00;;
59607;SDS011;45426;44.726;10.390;2022-12-11T13:59:55;14.45;;;7.00;;
59607;SDS011;45426;44.726;10.390;2022-12-11T14:05:01;14.50;;;6.78;;
59607;SDS011;45426;44.726;10.390;2022-12-11T14:07:34;13.57;;;6.38;;
59607;SDS011;45426;44.726;10.390;2022-12-11T14:10:06;12.82;;;6.15;;
59607;SDS011;45426;44.726;10.390;2022-12-11T14:12:40;16.40;;;6.03;;
59607;SDS011;45426;44.726;10.390;2022-12-11T14:15:22;11.93;;;5.10;;
59607;SDS011;45426;44.726;10.390;2022-12-11T14:17:48;13.65;;;6.18;;
59607;SDS011;45426;44.726;10.390;2022-12-11T14:20:24;12.75;;;5.45;;
59607;SDS011;45426;44.726;10.390;2022-12-11T14:23:06;10.85;;;5.20;;
59607;SDS011;45426;44.726;10.390;2022-12-11T14:25:40;11.20;;;5.70;;
59607;SDS011;45426;44.726;10.390;2022-12-11T14:28:13;12.27;;;5.90;;
59607;SDS011;45426;44.726;10.390;2022-12-11T14:30:43;12.53;;;5.63;;
59607;SDS011;45426;44.726;10.390;2022-12-11T14:33:13;11.20;;;5.05;;
59607;SDS011;45426;44.726;10.390;2022-12-11T14:35:40;8.35;;;3.80;;
59607;SDS011;45426;44.726;10.390;2022-12-11T14:38:09;8.43;;;3.70;;
59607;SDS011;45426;44.726;10.390;2022-12-11T14:40:41;6.13;;;3.35;;
59607;SDS011;45426;44.726;10.390;2022-12-11T14:43:52;8.13;;;3.97;;
59607;SDS011;45426;44.726;10.390;2022-12-11T14:46:01;6.55;;;3.78;;
59607;SDS011;45426;44.726;10.390;2022-12-11T14:48:35;8.82;;;4.20;;
59607;SDS011;45426;44.726;10.390;2022-12-11T14:51:14;6.78;;;3.75;;
59607;SDS011;45426;44.726;10.390;2022-12-11T14:53:44;8.25;;;4.10;;
59607;SDS011;45426;44.726;10.390;2022-12-11T14:56:15;7.03;;;4.03;;
59607;SDS011;45426;44.726;10.390;2022-12-11T14:58:45;7.88;;;4.07;;
59607;SDS011;45426;44.726;10.390;2022-12-11T15:01:27;8.15;;;4.57;;
59607;SDS011;45426;44.726;10.390;2022-12-11T15:06:28;12.02;;;5.82;;
59607;SDS011;45426;44.726;10.390;2022-12-11T15:09:07;8.48;;;4.50;;
59607;SDS011;45426;44.726;10.390;2022-12-11T15:11:43;6.97;;;3.63;;
59607;SDS011;45426;44.726;10.390;2022-12-11T15:14:10;7.60;;;3.70;;
59607;SDS011;45426;44.726;10.390;2022-12-11T15:16:38;6.35;;;3.65;;
59607;SDS011;45426;44.726;10.390;2022-12-11T15:19:05;6.97;;;3.67;;
59607;SDS011;45426;44.726;10.390;2022-12-11T15:21:40;8.02;;;3.85;;
59607;SDS011;45426;44.726;10.390;2022-12-11T15:24:05;8.77;;;4.20;;
59607;SDS011;45426;44.726;10.390;2022-12-11T15:26:45;7.75;;;4.25;;
59607;SDS011;45426;44.726;10.390;2022-12-11T15:29:22;10.77;;;6.20;;
59607;SDS011;45426;44.726;10.390;2022-12-11T15:31:58;11.38;;;6.53;;
59607;SDS011;45426;44.726;10.390;2022-12-11T15:34:47;9.45;;;5.03;;
59607;SDS011;45426;44.726;10.390;2022-12-11T15:37:30;8.18;;;4.45;;
59607;SDS011;45426;44.726;10.390;2022-12-11T15:39:58;10.55;;;5.28;;
59607;SDS011;45426;44.726;10.390;2022-12-11T15:42:33;10.32;;;5.10;;
59607;SDS011;45426;44.726;10.390;2022-12-11T15:45:00;8.25;;;4.55;;
59607;SDS011;45426;44.726;10.390;2022-12-11T15:47:27;10.02;;;4.82;;
59607;SDS011;45426;44.726;10.390;2022-12-11T15:50:28;11.00;;;4.93;;
59607;SDS011;45426;44.726;10.390;2022-12-11T15:52:50;9.73;;;5.32;;
59607;SDS011;45426;44.726;10.390;2022-12-11T15:55:18;11.88;;;6.70;;
59607;SDS011;45426;44.726;10.390;2022-12-11T16:00:13;12.40;;;6.82;;
59607;SDS011;45426;44.726;10.390;2022-12-11T16:02:39;12.55;;;7.10;;
59607;SDS011;45426;44.726;10.390;2022-12-11T16:05:05;22.90;;;11.98;;
59607;SDS011;45426;44.726;10.390;2022-12-11T16:07:31;15.90;;;9.57;;
59607;SDS011;45426;44.726;10.390;2022-12-11T16:09:57;12.23;;;6.03;;
59607;SDS011;45426;44.726;10.390;2022-12-11T16:12:23;9.90;;;5.15;;
59607;SDS011;45426;44.726;10.390;2022-12-11T16:14:48;11.68;;;6.85;;
59607;SDS011;45426;44.726;10.390;2022-12-11T16:17:13;17.20;;;9.13;;